W.w. Crum — WDB7252 — position and weather

sailwx.info

Track history (hours):
 
Tides and Currents Weather Stations Pressure Air Temp Water Temp Dewpoint Dewpoint Depression Visibility Wind Speed Wind Dir Waves Ship Positions

W.w. Crum

Owner: Magnolia Marine Transport Co, Vicksburg, MS. More information available from US FCC via Universal Licensing System and Coast Guard Vessel Documentation Center.

Last reported at 2017-Feb-16 01:33 UTC. Time now 2017-Feb-19 21:21 UTC.
Position N 32°37' W 091°09'.

Length 40 m; draft 2.7 m.

Type: Towing. MMSI: 366939330.

Date/timePositionNaut miles runAvg speedWind from/ knotsBaromVisibWave heightAir tempDewpointWater temp
2017-Feb-16 01:33N 32°37' W 091°09'4 4.2
2017-Feb-16 00:34N 32°34' W 091°06'4 4.4
2017-Feb-15 23:33N 32°29' W 091°07'5 4.7
2017-Feb-15 22:33N 32°26' W 091°03'3 3.3
2017-Feb-15 21:33N 32°24' W 090°60'4 3.6
2017-Feb-15 20:33N 32°21' W 090°59'4 4.1
2017-Feb-15 19:33N 32°20' W 090°54'1 0.7
2017-Feb-15 18:34N 32°21' W 090°54'0 0.0
2017-Feb-15 17:34N 32°21' W 090°54'1 1.3
2017-Feb-15 16:33N 32°22' W 090°53'1 1.3
2017-Feb-15 15:34N 32°23' W 090°53'3 2.7
2017-Feb-15 14:34N 32°20' W 090°54'2 1.8
2017-Feb-15 13:34N 32°19' W 090°54'3 2.6
2017-Feb-15 12:34N 32°17' W 090°57'3 3.5
2017-Feb-15 11:34N 32°14' W 090°59'0 0.0
2017-Feb-15 10:34N 32°14' W 090°59'3 3.2
2017-Feb-15 09:34N 32°11' W 090°60'4 3.7
2017-Feb-15 08:34N 32°07' W 091°01'4 3.1
2017-Feb-15 07:20N 32°08' W 091°05'5 2.7
2017-Feb-15 05:23N 32°03' W 091°03'1 1.7
2017-Feb-15 04:32N 32°02' W 091°04'  
2017-Feb-12 06:33N 32°02' W 091°04'6 6.2
2017-Feb-12 05:34N 32°08' W 091°05'7 6.6
2017-Feb-12 04:33N 32°12' W 090°59'8 8.4
2017-Feb-12 03:34N 32°19' W 090°54'1 1.4
2017-Feb-12 02:34N 32°21' W 090°53'1 1.0
2017-Feb-12 01:33N 32°22' W 090°53'1 1.4
2017-Feb-12 00:34N 32°23' W 090°53'0 0.0
2017-Feb-11 23:34N 32°23' W 090°53'0 0.0
2017-Feb-11 22:33N 32°23' W 090°53'0 0.0
2017-Feb-11 21:33N 32°23' W 090°53'0 0.0
2017-Feb-11 20:33N 32°23' W 090°53'0 0.1
2017-Feb-11 19:34N 32°23' W 090°53'0 0.0
2017-Feb-11 18:34N 32°23' W 090°53'0 0.0
2017-Feb-11 17:33N 32°23' W 090°53'0 0.4
2017-Feb-11 16:34N 32°23' W 090°53'0 0.1
2017-Feb-11 15:34N 32°23' W 090°53'0 0.0
2017-Feb-11 14:34N 32°23' W 090°53'0 0.3
2017-Feb-11 13:33N 32°23' W 090°53'0 0.1
2017-Feb-11 12:34N 32°23' W 090°53'2 1.9
2017-Feb-11 11:34N 32°21' W 090°53'5 5.2
2017-Feb-11 10:34N 32°17' W 090°57'6 5.6
2017-Feb-11 09:33N 32°12' W 090°59'5 5.0
2017-Feb-11 08:34N 32°07' W 091°02'3 3.1
2017-Feb-11 07:34N 32°08' W 091°06'5 4.7
2017-Feb-11 06:33N 32°04' W 091°03'8 5.4
2017-Feb-11 05:06N 31°59' W 091°11'136 3.2
2017-Feb-09 11:21N 29°46' W 091°43'10 3.7
2017-Feb-09 08:34N 29°51' W 091°54'4 4.5
2017-Feb-09 07:33N 29°50' W 091°59'5 4.6
2017-Feb-09 06:34N 29°48' W 092°04'4 4.4
2017-Feb-09 05:34N 29°47' W 092°09'4 4.2
2017-Feb-09 04:34N 29°48' W 092°13'1 1.4
2017-Feb-09 03:33N 29°48' W 092°15'0 0.0
2017-Feb-09 02:33N 29°48' W 092°15'0 0.1
2017-Feb-09 01:34N 29°48' W 092°15'3 3.4
2017-Feb-09 00:33N 29°50' W 092°18'4 3.6
2017-Feb-08 23:34N 29°51' W 092°22'5 4.2
2017-Feb-08 22:21N 29°54' W 092°27'31 4.5
2017-Feb-08 15:30N 29°56' W 093°03'3 3.5
2017-Feb-08 14:34N 29°56' W 093°06'3 3.4
2017-Feb-08 13:34N 29°57' W 093°10'8 3.9
2017-Feb-08 11:33N 30°03' W 093°16'3 3.2
2017-Feb-08 10:34N 30°05' W 093°18'2 1.9
2017-Feb-08 09:33N 30°05' W 093°20'4 3.8
2017-Feb-08 08:34N 30°04' W 093°24'4 4.4
2017-Feb-08 07:34N 30°04' W 093°29'4 4.4
2017-Feb-08 06:34N 30°04' W 093°34'4 4.5
2017-Feb-08 05:33N 30°04' W 093°39'  
Track history (hours):
 
Tides and Currents Weather Stations Pressure Air Temp Water Temp Dewpoint Dewpoint Depression Visibility Wind Speed Wind Dir Waves Ship Positions

W.w. Crum

Owner: Magnolia Marine Transport Co, Vicksburg, MS. More information available from US FCC via Universal Licensing System and Coast Guard Vessel Documentation Center.

Last reported at 2017-Feb-16 01:33 UTC. Time now 2017-Feb-19 21:21 UTC.
Position N 32°37' W 091°09'.

Length 40 m; draft 2.7 m.

Type: Towing. MMSI: 366939330.

Date/timePositionNaut miles runAvg speedWind from/ knotsBaromVisibWave heightAir tempDewpointWater temp
2017-Feb-16 01:33N 32°37' W 091°09'4 4.2
2017-Feb-16 00:34N 32°34' W 091°06'4 4.4
2017-Feb-15 23:33N 32°29' W 091°07'5 4.7
2017-Feb-15 22:33N 32°26' W 091°03'3 3.3
2017-Feb-15 21:33N 32°24' W 090°60'4 3.6
2017-Feb-15 20:33N 32°21' W 090°59'4 4.1
2017-Feb-15 19:33N 32°20' W 090°54'1 0.7
2017-Feb-15 18:34N 32°21' W 090°54'0 0.0
2017-Feb-15 17:34N 32°21' W 090°54'1 1.3
2017-Feb-15 16:33N 32°22' W 090°53'1 1.3
2017-Feb-15 15:34N 32°23' W 090°53'3 2.7
2017-Feb-15 14:34N 32°20' W 090°54'2 1.8
2017-Feb-15 13:34N 32°19' W 090°54'3 2.6
2017-Feb-15 12:34N 32°17' W 090°57'3 3.5
2017-Feb-15 11:34N 32°14' W 090°59'0 0.0
2017-Feb-15 10:34N 32°14' W 090°59'3 3.2
2017-Feb-15 09:34N 32°11' W 090°60'4 3.7
2017-Feb-15 08:34N 32°07' W 091°01'4 3.1
2017-Feb-15 07:20N 32°08' W 091°05'5 2.7
2017-Feb-15 05:23N 32°03' W 091°03'1 1.7
2017-Feb-15 04:32N 32°02' W 091°04'  
2017-Feb-12 06:33N 32°02' W 091°04'6 6.2
2017-Feb-12 05:34N 32°08' W 091°05'7 6.6
2017-Feb-12 04:33N 32°12' W 090°59'8 8.4
2017-Feb-12 03:34N 32°19' W 090°54'1 1.4
2017-Feb-12 02:34N 32°21' W 090°53'1 1.0
2017-Feb-12 01:33N 32°22' W 090°53'1 1.4
2017-Feb-12 00:34N 32°23' W 090°53'0 0.0
2017-Feb-11 23:34N 32°23' W 090°53'0 0.0
2017-Feb-11 22:33N 32°23' W 090°53'0 0.0
2017-Feb-11 21:33N 32°23' W 090°53'0 0.0
2017-Feb-11 20:33N 32°23' W 090°53'0 0.1
2017-Feb-11 19:34N 32°23' W 090°53'0 0.0
2017-Feb-11 18:34N 32°23' W 090°53'0 0.0
2017-Feb-11 17:33N 32°23' W 090°53'0 0.4
2017-Feb-11 16:34N 32°23' W 090°53'0 0.1
2017-Feb-11 15:34N 32°23' W 090°53'0 0.0
2017-Feb-11 14:34N 32°23' W 090°53'0 0.3
2017-Feb-11 13:33N 32°23' W 090°53'0 0.1
2017-Feb-11 12:34N 32°23' W 090°53'2 1.9
2017-Feb-11 11:34N 32°21' W 090°53'5 5.2
2017-Feb-11 10:34N 32°17' W 090°57'6 5.6
2017-Feb-11 09:33N 32°12' W 090°59'5 5.0
2017-Feb-11 08:34N 32°07' W 091°02'3 3.1
2017-Feb-11 07:34N 32°08' W 091°06'5 4.7
2017-Feb-11 06:33N 32°04' W 091°03'8 5.4
2017-Feb-11 05:06N 31°59' W 091°11'136 3.2
2017-Feb-09 11:21N 29°46' W 091°43'10 3.7
2017-Feb-09 08:34N 29°51' W 091°54'4 4.5
2017-Feb-09 07:33N 29°50' W 091°59'5 4.6
2017-Feb-09 06:34N 29°48' W 092°04'4 4.4
2017-Feb-09 05:34N 29°47' W 092°09'4 4.2
2017-Feb-09 04:34N 29°48' W 092°13'1 1.4
2017-Feb-09 03:33N 29°48' W 092°15'0 0.0
2017-Feb-09 02:33N 29°48' W 092°15'0 0.1
2017-Feb-09 01:34N 29°48' W 092°15'3 3.4
2017-Feb-09 00:33N 29°50' W 092°18'4 3.6
2017-Feb-08 23:34N 29°51' W 092°22'5 4.2
2017-Feb-08 22:21N 29°54' W 092°27'31 4.5
2017-Feb-08 15:30N 29°56' W 093°03'3 3.5
2017-Feb-08 14:34N 29°56' W 093°06'3 3.4
2017-Feb-08 13:34N 29°57' W 093°10'8 3.9
2017-Feb-08 11:33N 30°03' W 093°16'3 3.2
2017-Feb-08 10:34N 30°05' W 093°18'2 1.9
2017-Feb-08 09:33N 30°05' W 093°20'4 3.8
2017-Feb-08 08:34N 30°04' W 093°24'4 4.4
2017-Feb-08 07:34N 30°04' W 093°29'4 4.4
2017-Feb-08 06:34N 30°04' W 093°34'4 4.5
2017-Feb-08 05:33N 30°04' W 093°39'  

Dump ship's entire track history